Nearby METAR Reports

 

KGSP - Greer/Spartansbg, South Carolina, USA
Distance from station: E 4mi, 6km
Updated: Tue, 19-Mar-2019 9:53am EDT
Clear
Clear
 Wind from NE
Wind: NE 14 mph , 22 km/h, Gust: 20 mph , 31 km/h
Temperature: 43°F , 6°C
Wind Chill: 36°F , 2°C
Dew Point: 18°F , -8°C
Humidity: 36%
Barometer: 30.44 inHg , 1030.8 hPa
Clouds: Clear
Visibility: 10 miles , 16 km
2019/03/19 13:53 KGSP 191353Z 04012G17KT 10SM CLR 06/M08 A3044 RMK AO2 SLP309 T00561078
KGMU - Greenville, South Carolina, USA
Distance from station: SW 5mi, 8km
Updated: Tue, 19-Mar-2019 9:53am EDT
Clear
Clear
 Wind from NE
Wind: NE 13 mph , 20 km/h, Gust: 22 mph , 35 km/h
Temperature: 45°F , 7°C
Wind Chill: 39°F , 4°C
Dew Point: 19°F , -7°C
Humidity: 37%
Barometer: 30.44 inHg , 1030.8 hPa
Clouds: Clear
Visibility: 10 miles , 16 km
2019/03/19 13:53 KGMU 191353Z 05011G19KT 10SM CLR 07/M07 A3044 RMK AO2 SLP310 T00671072
 
KGYH - Greenville, South Carolina, USA
Distance from station: SSW 11mi, 18km
Updated: Tue, 19-Mar-2019 10:47am EDT
Clear
Clear
 Wind from ENE
Wind: ENE 14 mph , 22 km/h, Gust: 21 mph , 33 km/h
Temperature: 45°F , 7°C
Wind Chill: 39°F , 4°C
Dew Point: 19°F , -7°C
Humidity: 37%
Barometer: 30.44 inHg , 1030.8 hPa
Clouds: Clear
Visibility: 10 miles , 16 km
2019/03/19 14:47 KGYH 191447Z 06012G18KT 10SM CLR 07/M07 A3044
KSPA - Spartanburg, South Carolina, USA
Distance from station: E 20mi, 32km
Updated: Tue, 19-Mar-2019 10:35am EDT
Clear
Clear
 Wind from ENE
Wind: ENE 7 mph , 11 km/h
Temperature: 45°F , 7°C
Wind Chill: 41°F , 5°C
Dew Point: 21°F , -6°C
Humidity: 39%
Barometer: 30.44 inHg , 1030.8 hPa
Clouds: Clear
Visibility: 10 miles , 16 km
2019/03/19 14:35 KSPA 191435Z AUTO 07006KT 10SM CLR 07/M06 A3044 RMK AO2
 
KLQK - Pickens, South Carolina, USA
Distance from station: WSW 24mi, 39km
Updated: Tue, 19-Mar-2019 10:35am EDT
Clear
Clear
 Wind from NE
Wind: NE 12 mph , 19 km/h, Gust: 20 mph , 31 km/h
Temperature: 46°F , 8°C
Wind Chill: 40°F , 4°C
Dew Point: 18°F , -8°C
Humidity: 32%
Barometer: 30.42 inHg , 1030.1 hPa
Clouds: Clear
Visibility: 10 miles , 16 km
2019/03/19 14:35 KLQK 191435Z AUTO 05010G17KT 10SM CLR 08/M08 A3042 RMK AO2 T00751076
KLUX - Laurens, South Carolina, USA
Distance from station: SE 33mi, 54km
Updated: Tue, 19-Mar-2019 10:55am EDT
Clear
Clear
 Wind from E
Wind: E 12 mph , 19 km/h, Gust: 18 mph , 30 km/h
Temperature: 45°F , 7°C
Wind Chill: 39°F , 4°C
Dew Point: 28°F , -2°C
Humidity: 53%
Barometer: 30.44 inHg , 1030.8 hPa
Clouds: Clear
Visibility: 10 miles , 16 km
2019/03/19 14:55 KLUX 191455Z AUTO 10010G16KT 10SM CLR 07/M02 A3044 RMK AO2
 
KAND - Anderson, South Carolina, USA
Distance from station: SW 37mi, 59km
Updated: Tue, 19-Mar-2019 9:56am EDT
Clear
Clear
 Wind from ENE
Wind: ENE 17 mph , 28 km/h
Temperature: 45°F , 7°C
Wind Chill: 38°F , 3°C
Dew Point: 19°F , -7°C
Humidity: 37%
Barometer: 30.43 inHg , 1030.5 hPa
Clouds: Clear
Visibility: 10 miles , 16 km
2019/03/19 13:56 KAND 191356Z AUTO 06015KT 10SM CLR 07/M07 A3043 RMK AO2 SLP304 T00721072 $
KCEU - Clemson, South Carolina, USA
Distance from station: WSW 37mi, 60km
Updated: Tue, 19-Mar-2019 9:54am EDT
Clear
Clear
 Wind from ENE
Wind: ENE 10 mph , 17 km/h
Temperature: 43°F , 6°C
Wind Chill: 37°F , 3°C
Dew Point: 19°F , -7°C
Humidity: 39%
Barometer: 30.44 inHg , 1030.8 hPa
Clouds: Clear
Visibility: 10 miles , 16 km
2019/03/19 13:54 KCEU 191354Z AUTO 07009KT 10SM CLR 06/M07 A3044 RMK AO2 SLP309 T00611067
 
KAVL - Asheville, North Carolina, USA
Distance from station: NNW 40mi, 64km
Updated: Tue, 19-Mar-2019 9:54am EDT
Clear
Clear
 Wind from calm
Wind: Calm
Temperature: 36°F , 2°C
Dew Point: 19°F , -7°C
Humidity: 52%
Barometer: 30.41 inHg , 1029.8 hPa
Clouds: Clear
Visibility: 10 miles , 16 km
2019/03/19 13:54 KAVL 191354Z 00000KT 10SM CLR 02/M07 A3041 RMK AO2 SLP305 T00171067
KFQD - Rutherfordton, North Carolina, USA
Distance from station: NNE 41mi, 66km
Updated: Tue, 19-Mar-2019 10:40am EDT
Clear
Clear
 Wind from ENE
Wind: ENE 7 mph , 11 km/h
Temperature: 43°F , 6°C
Wind Chill: 39°F , 4°C
Dew Point: 18°F , -8°C
Humidity: 36%
Barometer: 30.46 inHg , 1031.5 hPa
Clouds: Clear
Visibility: 10 miles , 16 km
2019/03/19 14:40 KFQD 191440Z AUTO 07006KT 030V090 10SM CLR 06/M08 A3046 RMK AO2
 
KGRD - Greenwood, South Carolina, USA
Distance from station: S 45mi, 73km
Updated: Tue, 19-Mar-2019 9:56am EDT
Clear
Clear
 Wind from ENE
Wind: ENE 13 mph , 20 km/h, Gust: 20 mph , 31 km/h
Temperature: 45°F , 7°C
Wind Chill: 39°F , 4°C
Dew Point: 25°F , -4°C
Humidity: 46%
Barometer: 30.44 inHg , 1030.8 hPa
Clouds: Clear
Visibility: 10 miles , 16 km
2019/03/19 13:56 KGRD 191356Z AUTO 06011G17KT 10SM CLR 07/M04 A3044 RMK AO2 SLP309 T00671039
KEHO - Shelby Muni, North Carolina, USA
Distance from station: ENE 46mi, 74km
Updated: Tue, 19-Mar-2019 10:40am EDT
Clear
Clear
 Wind from NE
Wind: NE 12 mph , 19 km/h
Temperature: 45°F , 7°C
Wind Chill: 39°F , 4°C
Dew Point: 25°F , -4°C
Humidity: 46%
Barometer: 30.45 inHg , 1031.2 hPa
Clouds: Clear
Visibility: 10 miles , 16 km
2019/03/19 14:40 KEHO 191440Z AUTO 04010KT 10SM CLR 07/M04 A3045 RMK AO2 T00671036